Morshansk, Russia
Current Conditions -  °F | °C
As of 11:00 PM on Sunday 21 Dec 2014 (Local Time) from UUOO Reporting Station
Drizzle Drizzle  
Wind Chill: 28°   Ceiling: 400
Heat Index: 34°   Visibility: 3mi
Dew Point: 32°   Wind: 7mph
Humidity: 93%   Direction: 220°SW
Pressure: 29.71"   Gusts: NA
Location:  53.45°N, 41.81°E
Report Text: UUOO 212000Z 22003MPS 5000 -DZ OVC004 01/00 Q1006 NOSIG RMK30290345
Loading
Personal Weather Stations






























Interactive Weather Map New forecast layout! Learn more

10-Day Weather Forecast

Advertisements
Track Severe Weather on mobile